Time;durP1;ratioP1;P1;durP2;ratioP2;P2;SDS_P1;SDS_P2;PMS_P1;PMS_P2;Temp;Humidity;BMP_temperature;BMP_pressure;BME280_temperature;BME280_humidity;BME280_pressure;Samples;Min_cycle;Max_cycle;Signal;HPM_P1;HPM_P2
2021/11/28 00:01:52;;;;;;;0.50;0.50;;;;;;;;;;5052588;28;20171;-66
2021/11/28 00:04:18;;;;;;;0.50;0.50;;;;;;;;;;5053046;28;20947;-63
2021/11/28 00:07:01;;;;;;;0.53;0.53;;;;;;;;;;5053078;28;20172;-65
2021/11/28 00:12:59;;;;;;;0.50;0.50;;;;;;;;;;4991125;28;20232;-65
2021/11/28 00:15:16;;;;;;;0.50;0.50;;;;;;;;;;5047338;28;20207;-65
2021/11/28 00:17:42;;;;;;;0.50;0.50;;;;;;;;;;5034681;28;20168;-63
2021/11/28 00:20:11;;;;;;;0.50;0.50;;;;;;;;;;5052168;28;20223;-67
2021/11/28 00:22:38;;;;;;;0.50;0.50;;;;;;;;;;5052617;28;20164;-66
2021/11/28 00:25:05;;;;;;;0.50;0.50;;;;;;;;;;5052062;28;20175;-65
2021/11/28 00:27:31;;;;;;;0.50;0.50;;;;;;;;;;5052409;28;20168;-66
2021/11/28 00:29:57;;;;;;;0.60;0.60;;;;;;;;;;5052059;28;20204;-65
2021/11/28 00:32:23;;;;;;;0.70;0.70;;;;;;;;;;5052118;28;20494;-66
2021/11/28 00:34:50;;;;;;;0.70;0.70;;;;;;;;;;5052205;28;20252;-66
2021/11/28 00:37:16;;;;;;;0.60;0.60;;;;;;;;;;5052206;28;20390;-65
2021/11/28 00:39:43;;;;;;;0.50;0.50;;;;;;;;;;5052079;28;20254;-63
2021/11/28 00:42:09;;;;;;;0.55;0.55;;;;;;;;;;5051839;28;20484;-63
2021/11/28 00:44:35;;;;;;;0.60;0.60;;;;;;;;;;5034110;28;20180;-65
2021/11/28 00:47:01;;;;;;;0.60;0.60;;;;;;;;;;5052084;28;20168;-64
2021/11/28 00:49:27;;;;;;;0.50;0.50;;;;;;;;;;5051803;28;20457;-63
2021/11/28 00:51:57;;;;;;;0.60;0.60;;;;;;;;;;5051829;28;20495;-64
2021/11/28 00:54:23;;;;;;;0.60;0.60;;;;;;;;;;5051943;28;20238;-63
2021/11/28 00:56:49;;;;;;;0.50;0.50;;;;;;;;;;5051940;28;20259;-64
2021/11/28 00:59:16;;;;;;;0.60;0.60;;;;;;;;;;5051675;28;20214;-63
2021/11/28 01:01:42;;;;;;;0.50;0.50;;;;;;;;;;5051528;28;20192;-64
2021/11/28 01:04:08;;;;;;;0.50;0.50;;;;;;;;;;5033858;28;20258;-63
2021/11/28 01:06:34;;;;;;;0.60;0.60;;;;;;;;;;5051729;28;20171;-65
2021/11/28 01:09:00;;;;;;;0.50;0.50;;;;;;;;;;5051623;28;20199;-65
2021/11/28 01:11:26;;;;;;;0.50;0.50;;;;;;;;;;5033420;28;20195;-65
2021/11/28 01:13:53;;;;;;;0.50;0.50;;;;;;;;;;5051550;28;20164;-65
2021/11/28 01:16:20;;;;;;;0.50;0.50;;;;;;;;;;5051589;28;20247;-66
2021/11/28 01:18:46;;;;;;;0.60;0.60;;;;;;;;;;5051412;28;20630;-64
2021/11/28 01:21:12;;;;;;;0.60;0.60;;;;;;;;;;5051316;28;20182;-63
2021/11/28 01:23:38;;;;;;;0.60;0.60;;;;;;;;;;5051476;28;20534;-64
2021/11/28 01:26:04;;;;;;;0.60;0.60;;;;;;;;;;5050514;28;20402;-65
2021/11/28 01:28:30;;;;;;;0.60;0.60;;;;;;;;;;5051243;28;20199;-65
2021/11/28 01:30:56;;;;;;;0.50;0.50;;;;;;;;;;5051445;28;20194;-63
2021/11/28 01:33:22;;;;;;;0.50;0.50;;;;;;;;;;5033711;28;20623;-65
2021/11/28 01:35:48;;;;;;;0.50;0.50;;;;;;;;;;5051460;28;20179;-65
2021/11/28 01:38:18;;;;;;;0.60;0.60;;;;;;;;;;5051300;28;20414;-66
2021/11/28 01:40:45;;;;;;;0.60;0.60;;;;;;;;;;5051095;28;20407;-65
2021/11/28 01:43:15;;;;;;;0.60;0.60;;;;;;;;;;5051239;28;20164;-63
2021/11/28 01:45:42;;;;;;;0.50;0.50;;;;;;;;;;5051486;28;20198;-64
2021/11/28 01:48:09;;;;;;;0.50;0.50;;;;;;;;;;5051037;28;20164;-66
2021/11/28 01:50:36;;;;;;;0.60;0.60;;;;;;;;;;5051269;28;20616;-65
2021/11/28 01:53:03;;;;;;;0.60;0.60;;;;;;;;;;5033621;28;20362;-65
2021/11/28 01:55:30;;;;;;;0.50;0.50;;;;;;;;;;5033344;28;20263;-64
2021/11/28 01:57:56;;;;;;;0.50;0.50;;;;;;;;;;5051140;28;20264;-63
2021/11/28 02:00:25;;;;;;;0.50;0.50;;;;;;;;;;5050992;28;20263;-65
2021/11/28 02:02:52;;;;;;;0.60;0.60;;;;;;;;;;5051253;28;20182;-66
2021/11/28 02:05:18;;;;;;;0.50;0.50;;;;;;;;;;5051288;28;20168;-65
2021/11/28 02:07:45;;;;;;;0.50;0.50;;;;;;;;;;5051399;28;20169;-65
2021/11/28 02:10:11;;;;;;;0.50;0.50;;;;;;;;;;5051026;28;20251;-65
2021/11/28 02:12:38;;;;;;;0.50;0.50;;;;;;;;;;5051355;28;20574;-65
2021/11/28 02:15:04;;;;;;;0.60;0.60;;;;;;;;;;5051218;28;20168;-65
2021/11/28 02:17:33;;;;;;;0.50;0.50;;;;;;;;;;5051346;28;20168;-65
2021/11/28 02:19:59;;;;;;;0.50;0.50;;;;;;;;;;5050742;28;20301;-65
2021/11/28 02:22:25;;;;;;;0.60;0.60;;;;;;;;;;5050978;28;20199;-65
2021/11/28 02:24:51;;;;;;;0.50;0.50;;;;;;;;;;5050934;28;20226;-66
2021/11/28 02:27:17;;;;;;;0.60;0.60;;;;;;;;;;5050979;28;20425;-66
2021/11/28 02:29:44;;;;;;;0.50;0.50;;;;;;;;;;5050809;28;20458;-65
2021/11/28 02:32:10;;;;;;;0.60;0.60;;;;;;;;;;5050552;28;20191;-64
2021/11/28 02:34:36;;;;;;;0.50;0.50;;;;;;;;;;5050757;28;20171;-65
2021/11/28 02:37:03;;;;;;;0.50;0.50;;;;;;;;;;5051997;28;20172;-66
2021/11/28 02:39:29;;;;;;;0.50;0.50;;;;;;;;;;5054517;28;20218;-66
2021/11/28 02:41:55;;;;;;;0.60;0.60;;;;;;;;;;5054137;28;20183;-65
2021/11/28 02:44:21;;;;;;;0.50;0.50;;;;;;;;;;5054451;28;20176;-66
2021/11/28 02:46:47;;;;;;;0.70;0.70;;;;;;;;;;5055282;28;20206;-65
2021/11/28 02:49:15;;;;;;;0.60;0.60;;;;;;;;;;5055561;28;20489;-65
2021/11/28 02:51:41;;;;;;;0.68;0.68;;;;;;;;;;5055129;28;20890;-63
2021/11/28 02:54:07;;;;;;;0.60;0.60;;;;;;;;;;5054221;28;20169;-64
2021/11/28 02:56:34;;;;;;;0.50;0.50;;;;;;;;;;5054072;28;20430;-65
2021/11/28 02:59:00;;;;;;;0.60;0.60;;;;;;;;;;5026765;23;1079923;-63
2021/11/28 03:01:26;;;;;;;0.50;0.50;;;;;;;;;;5073553;28;20256;-63
2021/11/28 03:03:52;;;;;;;0.60;0.60;;;;;;;;;;5074106;28;20187;-63
2021/11/28 03:06:19;;;;;;;0.50;0.50;;;;;;;;;;5074132;28;20175;-63
2021/11/28 03:08:45;;;;;;;0.60;0.60;;;;;;;;;;5073840;28;20207;-63
2021/11/28 03:11:12;;;;;;;0.50;0.50;;;;;;;;;;5073616;28;20183;-63
2021/11/28 03:13:40;;;;;;;0.50;0.50;;;;;;;;;;5073878;28;20896;-63
2021/11/28 03:16:07;;;;;;;0.50;0.50;;;;;;;;;;5073838;28;20198;-63
2021/11/28 03:18:34;;;;;;;0.60;0.60;;;;;;;;;;5073742;28;20171;-62
2021/11/28 03:21:20;;;;;;;0.60;0.60;;;;;;;;;;5073521;28;20178;-63
2021/11/28 03:23:47;;;;;;;0.50;0.50;;;;;;;;;;5073479;28;20296;-63
2021/11/28 03:26:16;;;;;;;0.50;0.50;;;;;;;;;;5073600;28;20175;-63
2021/11/28 03:28:53;;;;;;;0.50;0.50;;;;;;;;;;5072263;28;20215;-63
2021/11/28 03:31:20;;;;;;;0.50;0.50;;;;;;;;;;5073446;28;20220;-63
2021/11/28 03:33:46;;;;;;;0.50;0.50;;;;;;;;;;5073500;28;20730;-63
2021/11/28 03:36:12;;;;;;;0.50;0.50;;;;;;;;;;5073460;28;20171;-63
2021/11/28 03:38:39;;;;;;;0.50;0.50;;;;;;;;;;5073312;28;20460;-63
2021/11/28 03:41:06;;;;;;;0.60;0.60;;;;;;;;;;5073171;28;20641;-63
2021/11/28 03:43:32;;;;;;;0.60;0.60;;;;;;;;;;5073364;28;20198;-63
2021/11/28 03:45:58;;;;;;;0.50;0.50;;;;;;;;;;5073349;28;20262;-63
2021/11/28 03:48:23;;;;;;;0.50;0.50;;;;;;;;;;5072232;28;20187;-63
2021/11/28 03:50:49;;;;;;;0.50;0.50;;;;;;;;;;5072964;28;20398;-63
2021/11/28 03:53:15;;;;;;;0.50;0.50;;;;;;;;;;5073138;28;20402;-63
2021/11/28 03:55:42;;;;;;;0.50;0.50;;;;;;;;;;5073025;28;20172;-63
2021/11/28 03:58:08;;;;;;;0.50;0.50;;;;;;;;;;5073082;28;20396;-63
2021/11/28 04:00:34;;;;;;;0.50;0.50;;;;;;;;;;5072621;28;20230;-63
2021/11/28 04:03:02;;;;;;;0.70;0.70;;;;;;;;;;5072875;28;20168;-63
2021/11/28 04:05:27;;;;;;;0.47;0.47;;;;;;;;;;5071533;28;20164;-63
2021/11/28 04:07:53;;;;;;;0.50;0.50;;;;;;;;;;5072899;28;20178;-63
2021/11/28 04:10:20;;;;;;;0.50;0.50;;;;;;;;;;5071102;28;20461;-63
2021/11/28 04:12:46;;;;;;;0.57;0.57;;;;;;;;;;5072809;28;20535;-63
2021/11/28 04:15:12;;;;;;;0.50;0.50;;;;;;;;;;5054717;28;20191;-63
2021/11/28 04:17:38;;;;;;;0.60;0.60;;;;;;;;;;5071286;28;20262;-63
2021/11/28 04:20:05;;;;;;;0.50;0.50;;;;;;;;;;5071185;28;20286;-63
2021/11/28 04:22:31;;;;;;;0.60;0.60;;;;;;;;;;5071234;28;20266;-63
2021/11/28 04:24:57;;;;;;;0.50;0.50;;;;;;;;;;5071220;28;20178;-63
2021/11/28 04:27:24;;;;;;;0.60;0.60;;;;;;;;;;5071282;28;20234;-63
2021/11/28 04:29:50;;;;;;;0.50;0.50;;;;;;;;;;5070893;28;20218;-63
2021/11/28 04:32:16;;;;;;;0.50;0.50;;;;;;;;;;5070765;28;20203;-63
2021/11/28 04:34:42;;;;;;;0.50;0.50;;;;;;;;;;5070938;28;20171;-63
2021/11/28 04:37:09;;;;;;;0.50;0.50;;;;;;;;;;5070949;28;20231;-63
2021/11/28 04:39:35;;;;;;;0.50;0.50;;;;;;;;;;5070758;28;20190;-63
2021/11/28 04:42:01;;;;;;;0.50;0.50;;;;;;;;;;5071949;28;20195;-63
2021/11/28 04:44:27;;;;;;;0.50;0.50;;;;;;;;;;5070793;28;20558;-63
2021/11/28 04:46:53;;;;;;;0.40;0.40;;;;;;;;;;5070658;28;20186;-63
2021/11/28 04:49:19;;;;;;;0.50;0.50;;;;;;;;;;5070619;28;20212;-63
2021/11/28 04:51:45;;;;;;;0.50;0.50;;;;;;;;;;5070453;28;20180;-64
2021/11/28 04:54:12;;;;;;;0.50;0.50;;;;;;;;;;5070727;28;20171;-63
2021/11/28 04:56:38;;;;;;;0.40;0.40;;;;;;;;;;5070855;28;20179;-63
2021/11/28 04:59:04;;;;;;;0.50;0.50;;;;;;;;;;5070614;28;20203;-64
2021/11/28 05:01:30;;;;;;;0.50;0.50;;;;;;;;;;5070071;28;20182;-63
2021/11/28 05:03:56;;;;;;;0.50;0.50;;;;;;;;;;5070388;28;20545;-63
2021/11/28 05:06:22;;;;;;;0.50;0.50;;;;;;;;;;5070742;28;20263;-63
2021/11/28 05:08:49;;;;;;;0.50;0.50;;;;;;;;;;5070318;28;20522;-63
2021/11/28 05:11:14;;;;;;;0.50;0.50;;;;;;;;;;5070175;28;20229;-63
2021/11/28 05:13:41;;;;;;;0.60;0.60;;;;;;;;;;5071759;28;20172;-63
2021/11/28 05:16:06;;;;;;;0.50;0.50;;;;;;;;;;5070310;28;20405;-63
2021/11/28 05:18:32;;;;;;;0.60;0.60;;;;;;;;;;5070271;28;20177;-63
2021/11/28 05:20:58;;;;;;;0.50;0.50;;;;;;;;;;5070102;28;20475;-63
2021/11/28 05:23:24;;;;;;;0.50;0.50;;;;;;;;;;5070389;28;20449;-63
2021/11/28 05:25:50;;;;;;;0.60;0.60;;;;;;;;;;5070332;28;20175;-63
2021/11/28 05:28:17;;;;;;;0.50;0.50;;;;;;;;;;5070154;28;20417;-63
2021/11/28 05:30:43;;;;;;;0.50;0.50;;;;;;;;;;5069793;28;20427;-63
2021/11/28 05:33:09;;;;;;;0.50;0.50;;;;;;;;;;5069968;28;20172;-63
2021/11/28 05:35:35;;;;;;;0.50;0.50;;;;;;;;;;5070164;28;20179;-63
2021/11/28 05:38:01;;;;;;;0.60;0.60;;;;;;;;;;5070072;28;20171;-63
2021/11/28 05:40:27;;;;;;;0.50;0.50;;;;;;;;;;5069750;28;20273;-63
2021/11/28 05:42:54;;;;;;;0.60;0.60;;;;;;;;;;5070071;28;20180;-63
2021/11/28 05:45:21;;;;;;;0.50;0.50;;;;;;;;;;5071011;28;20611;-63
2021/11/28 05:47:48;;;;;;;0.50;0.50;;;;;;;;;;5070080;28;20175;-63
2021/11/28 05:50:14;;;;;;;0.60;0.60;;;;;;;;;;5069745;28;20305;-63
2021/11/28 05:52:40;;;;;;;0.50;0.50;;;;;;;;;;5069954;28;20167;-63
2021/11/28 05:55:06;;;;;;;0.50;0.50;;;;;;;;;;5053421;28;20223;-63
2021/11/28 05:57:32;;;;;;;0.60;0.60;;;;;;;;;;5070007;28;20581;-63
2021/11/28 05:59:59;;;;;;;0.50;0.50;;;;;;;;;;5069667;28;20217;-63
2021/11/28 06:02:25;;;;;;;0.60;0.60;;;;;;;;;;5069591;28;20467;-63
2021/11/28 06:04:51;;;;;;;0.50;0.50;;;;;;;;;;5053339;28;20266;-63
2021/11/28 06:07:17;;;;;;;0.50;0.50;;;;;;;;;;5070055;28;20637;-63
2021/11/28 06:09:42;;;;;;;0.50;0.50;;;;;;;;;;5069726;28;20461;-63
2021/11/28 06:12:09;;;;;;;0.50;0.50;;;;;;;;;;5070886;28;20429;-64
2021/11/28 06:14:35;;;;;;;0.50;0.50;;;;;;;;;;5073758;28;20658;-63
2021/11/28 06:17:01;;;;;;;0.50;0.50;;;;;;;;;;5073595;28;20255;-63
2021/11/28 06:19:27;;;;;;;0.60;0.60;;;;;;;;;;5074701;28;20187;-63
2021/11/28 06:21:53;;;;;;;0.60;0.60;;;;;;;;;;5074500;28;20228;-63
2021/11/28 06:24:20;;;;;;;0.50;0.50;;;;;;;;;;5074708;28;20180;-63
2021/11/28 06:26:46;;;;;;;0.50;0.50;;;;;;;;;;5074649;28;20699;-63
2021/11/28 06:29:12;;;;;;;0.50;0.50;;;;;;;;;;5073205;28;20212;-63
2021/11/28 06:31:39;;;;;;;0.60;0.60;;;;;;;;;;5074340;28;20892;-63
2021/11/28 06:34:05;;;;;;;0.50;0.50;;;;;;;;;;5073225;28;20171;-63
2021/11/28 06:36:32;;;;;;;0.50;0.50;;;;;;;;;;5073180;28;20262;-63
2021/11/28 06:38:58;;;;;;;0.60;0.60;;;;;;;;;;5072812;28;20199;-63
2021/11/28 06:41:26;;;;;;;0.60;0.60;;;;;;;;;;5072940;28;20207;-63
2021/11/28 06:43:53;;;;;;;0.50;0.50;;;;;;;;;;5073349;28;20835;-63
2021/11/28 06:46:19;;;;;;;0.60;0.60;;;;;;;;;;5071522;28;20184;-63
2021/11/28 06:48:45;;;;;;;0.50;0.50;;;;;;;;;;5072579;28;20214;-63
2021/11/28 06:51:11;;;;;;;0.60;0.60;;;;;;;;;;5072586;28;20172;-63
2021/11/28 06:53:37;;;;;;;0.60;0.60;;;;;;;;;;5074675;28;20414;-63
2021/11/28 06:56:04;;;;;;;0.50;0.50;;;;;;;;;;5072801;28;20894;-63
2021/11/28 06:58:30;;;;;;;0.50;0.50;;;;;;;;;;5072816;28;20332;-63
2021/11/28 07:00:56;;;;;;;0.45;0.45;;;;;;;;;;5072921;28;20183;-64
2021/11/28 07:03:22;;;;;;;0.60;0.60;;;;;;;;;;5072757;28;20256;-64
2021/11/28 07:05:48;;;;;;;0.50;0.50;;;;;;;;;;5072723;28;20426;-64
2021/11/28 07:08:13;;;;;;;0.50;0.50;;;;;;;;;;5072634;28;20417;-64
2021/11/28 07:10:39;;;;;;;0.50;0.50;;;;;;;;;;5072225;28;20552;-64
2021/11/28 07:13:07;;;;;;;0.50;0.50;;;;;;;;;;5072604;28;20410;-64
2021/11/28 07:15:33;;;;;;;0.50;0.50;;;;;;;;;;5072615;28;20481;-64
2021/11/28 07:17:59;;;;;;;0.50;0.50;;;;;;;;;;5072267;28;20181;-64
2021/11/28 07:20:25;;;;;;;0.50;0.50;;;;;;;;;;5073158;28;20428;-63
2021/11/28 07:22:51;;;;;;;0.50;0.50;;;;;;;;;;5070955;28;20559;-63
2021/11/28 07:25:20;;;;;;;0.50;0.50;;;;;;;;;;5070198;28;20192;-64
2021/11/28 07:27:46;;;;;;;0.50;0.50;;;;;;;;;;5072242;28;20175;-64
2021/11/28 07:30:12;;;;;;;0.50;0.50;;;;;;;;;;5073257;28;20231;-63
2021/11/28 07:32:38;;;;;;;0.50;0.50;;;;;;;;;;5072182;28;20233;-64
2021/11/28 07:35:04;;;;;;;0.50;0.50;;;;;;;;;;5071506;28;20175;-64
2021/11/28 07:37:31;;;;;;;0.50;0.50;;;;;;;;;;5070971;28;20180;-64
2021/11/28 07:39:57;;;;;;;0.60;0.60;;;;;;;;;;5071554;28;20290;-63
2021/11/28 07:42:23;;;;;;;0.60;0.60;;;;;;;;;;5055358;28;20550;-64
2021/11/28 07:44:49;;;;;;;0.50;0.50;;;;;;;;;;5071858;28;20179;-63
2021/11/28 07:47:16;;;;;;;0.60;0.60;;;;;;;;;;5054879;28;20273;-63
2021/11/28 07:49:42;;;;;;;0.50;0.50;;;;;;;;;;5071695;28;20207;-63
2021/11/28 07:52:08;;;;;;;0.50;0.50;;;;;;;;;;5071724;28;20262;-63
2021/11/28 07:54:34;;;;;;;0.50;0.50;;;;;;;;;;5072139;28;20813;-63
2021/11/28 07:57:02;;;;;;;0.50;0.50;;;;;;;;;;5054867;28;20596;-63
2021/11/28 07:59:28;;;;;;;0.55;0.55;;;;;;;;;;5071717;28;20242;-63
2021/11/28 08:01:54;;;;;;;0.50;0.50;;;;;;;;;;5071312;28;20175;-63
2021/11/28 08:04:20;;;;;;;0.50;0.50;;;;;;;;;;5071348;28;20175;-63
2021/11/28 08:06:46;;;;;;;0.60;0.60;;;;;;;;;;5072644;28;20199;-63
2021/11/28 08:09:12;;;;;;;0.57;0.57;;;;;;;;;;5069208;28;20315;-63
2021/11/28 08:11:38;;;;;;;0.60;0.60;;;;;;;;;;5054607;28;20277;-63
2021/11/28 08:14:04;;;;;;;0.50;0.50;;;;;;;;;;5070934;28;20496;-63
2021/11/28 08:16:30;;;;;;;0.50;0.50;;;;;;;;;;5072515;28;20332;-64
2021/11/28 08:18:56;;;;;;;0.70;0.70;;;;;;;;;;5070778;28;20205;-63
2021/11/28 08:21:26;;;;;;;0.60;0.60;;;;;;;;;;5070813;28;20269;-63
2021/11/28 08:23:53;;;;;;;0.60;0.60;;;;;;;;;;5072677;28;20885;-64
2021/11/28 08:26:19;;;;;;;0.60;0.60;;;;;;;;;;5072653;28;20573;-63
2021/11/28 08:28:45;;;;;;;0.60;0.60;;;;;;;;;;5072408;28;20682;-63
2021/11/28 08:31:12;;;;;;;0.50;0.50;;;;;;;;;;5071679;28;20347;-63
2021/11/28 08:33:38;;;;;;;0.60;0.60;;;;;;;;;;5054328;28;20180;-63
2021/11/28 08:36:04;;;;;;;0.50;0.50;;;;;;;;;;5053779;28;20207;-63
2021/11/28 08:38:30;;;;;;;0.60;0.60;;;;;;;;;;5070853;28;20214;-63
2021/11/28 08:40:56;;;;;;;0.55;0.55;;;;;;;;;;5070379;28;20171;-63
2021/11/28 08:43:22;;;;;;;0.60;0.60;;;;;;;;;;5070493;28;20171;-64
2021/11/28 08:45:48;;;;;;;0.50;0.50;;;;;;;;;;5070718;28;20410;-63
2021/11/28 08:48:14;;;;;;;0.50;0.50;;;;;;;;;;5070281;28;20524;-64
2021/11/28 08:50:41;;;;;;;0.60;0.60;;;;;;;;;;5071655;28;20433;-63
2021/11/28 08:53:06;;;;;;;0.60;0.60;;;;;;;;;;5071438;28;20171;-64
2021/11/28 08:55:33;;;;;;;0.60;0.60;;;;;;;;;;5072028;28;20179;-63
2021/11/28 08:58:00;;;;;;;0.50;0.50;;;;;;;;;;5070438;28;20231;-63
2021/11/28 09:00:26;;;;;;;0.50;0.50;;;;;;;;;;5091635;22;20258;-64
2021/11/28 09:02:52;;;;;;;0.60;0.60;;;;;;;;;;5071911;28;20171;-64
2021/11/28 09:05:20;;;;;;;0.50;0.50;;;;;;;;;;5071761;28;20172;-64
2021/11/28 09:07:46;;;;;;;0.50;0.50;;;;;;;;;;5071844;28;20164;-64
2021/11/28 09:10:14;;;;;;;0.60;0.60;;;;;;;;;;5058950;28;20206;-64
2021/11/28 09:12:40;;;;;;;0.50;0.50;;;;;;;;;;5051780;28;20160;-64
2021/11/28 09:15:06;;;;;;;0.60;0.60;;;;;;;;;;5051674;28;20670;-64
2021/11/28 09:17:32;;;;;;;0.50;0.50;;;;;;;;;;5051581;28;20632;-64
2021/11/28 09:20:03;;;;;;;0.50;0.50;;;;;;;;;;5051319;28;20275;-64
2021/11/28 09:25:05;;;;;;;0.50;0.50;;;;;;;;;;5051707;28;20171;-64
2021/11/28 09:27:31;;;;;;;0.50;0.50;;;;;;;;;;5033661;28;20184;-65
2021/11/28 09:29:57;;;;;;;0.60;0.60;;;;;;;;;;5033515;28;20213;-65
2021/11/28 09:32:23;;;;;;;0.60;0.60;;;;;;;;;;5051204;28;20470;-65
2021/11/28 09:34:49;;;;;;;0.50;0.50;;;;;;;;;;5051559;28;20248;-65
2021/11/28 09:37:15;;;;;;;0.50;0.50;;;;;;;;;;5051473;28;20170;-64
2021/11/28 09:39:44;;;;;;;0.50;0.50;;;;;;;;;;5051182;28;20192;-65
2021/11/28 09:42:10;;;;;;;0.50;0.50;;;;;;;;;;5051147;28;20196;-64
2021/11/28 09:44:38;;;;;;;0.50;0.50;;;;;;;;;;5051395;28;20179;-64
2021/11/28 09:47:05;;;;;;;0.50;0.50;;;;;;;;;;5034678;28;20174;-65
2021/11/28 09:49:31;;;;;;;0.57;0.57;;;;;;;;;;5055361;28;20683;-64
2021/11/28 09:52:01;;;;;;;0.40;0.40;;;;;;;;;;5055250;28;20166;-64
2021/11/28 09:54:28;;;;;;;0.50;0.50;;;;;;;;;;5055399;28;20248;-65
2021/11/28 09:56:54;;;;;;;0.50;0.50;;;;;;;;;;5055321;28;20176;-64
2021/11/28 09:59:21;;;;;;;0.50;0.50;;;;;;;;;;5054895;28;20299;-65
2021/11/28 10:01:47;;;;;;;0.50;0.50;;;;;;;;;;5054808;28;20630;-64
2021/11/28 10:04:13;;;;;;;0.50;0.50;;;;;;;;;;5055062;28;20171;-65
2021/11/28 10:06:39;;;;;;;0.50;0.50;;;;;;;;;;5055222;28;20706;-64
2021/11/28 10:09:06;;;;;;;0.40;0.40;;;;;;;;;;5054918;28;20460;-65
2021/11/28 10:11:50;;;;;;;0.50;0.50;;;;;;;;;;5037060;28;20179;-64
2021/11/28 10:14:16;;;;;;;0.50;0.50;;;;;;;;;;5054955;28;20175;-64
2021/11/28 10:16:43;;;;;;;0.50;0.50;;;;;;;;;;5055077;28;20213;-65
2021/11/28 10:19:10;;;;;;;0.50;0.50;;;;;;;;;;5036883;28;20188;-65
2021/11/28 10:21:36;;;;;;;0.50;0.50;;;;;;;;;;5036758;28;20179;-64
2021/11/28 10:24:06;;;;;;;0.70;0.70;;;;;;;;;;5036740;28;20200;-65
2021/11/28 10:26:32;;;;;;;0.50;0.50;;;;;;;;;;5036781;28;20186;-65
2021/11/28 10:29:05;;;;;;;0.50;0.50;;;;;;;;;;5036692;28;20205;-65
2021/11/28 10:31:48;;;;;;;0.50;0.50;;;;;;;;;;5036824;28;20665;-65
2021/11/28 10:34:20;;;;;;;0.50;0.50;;;;;;;;;;5036579;28;20196;-65
2021/11/28 10:36:47;;;;;;;0.60;0.60;;;;;;;;;;5036629;28;20186;-64
2021/11/28 10:39:18;;;;;;;0.50;0.50;;;;;;;;;;5036488;28;20202;-65
2021/11/28 10:41:51;;;;;;;0.50;0.50;;;;;;;;;;5020195;28;20226;-65
2021/11/28 10:44:18;;;;;;;0.70;0.70;;;;;;;;;;5036371;28;20210;-65
2021/11/28 10:46:46;;;;;;;0.50;0.50;;;;;;;;;;5054466;28;20178;-64
2021/11/28 10:49:13;;;;;;;0.68;0.68;;;;;;;;;;5036133;28;20215;-65
2021/11/28 10:51:41;;;;;;;0.50;0.50;;;;;;;;;;5036109;28;20225;-65
2021/11/28 10:54:24;;;;;;;0.50;0.50;;;;;;;;;;5036139;28;20172;-65
2021/11/28 10:57:01;;;;;;;0.50;0.50;;;;;;;;;;5036365;28;20168;-65
2021/11/28 10:59:26;;;;;;;0.50;0.50;;;;;;;;;;5035668;28;20215;-65
2021/11/28 11:01:53;;;;;;;0.50;0.50;;;;;;;;;;5035888;28;20669;-65
2021/11/28 11:04:20;;;;;;;0.50;0.50;;;;;;;;;;5035964;28;20779;-65
2021/11/28 11:07:05;;;;;;;0.50;0.50;;;;;;;;;;5054028;28;20677;-64
2021/11/28 11:09:39;;;;;;;0.50;0.50;;;;;;;;;;5053782;28;20211;-66
2021/11/28 11:12:22;;;;;;;0.60;0.60;;;;;;;;;;5019520;28;20171;-64
2021/11/28 11:14:48;;;;;;;0.50;0.50;;;;;;;;;;5035826;28;20179;-64
2021/11/28 11:17:15;;;;;;;0.57;0.57;;;;;;;;;;5017065;28;20209;-64
2021/11/28 11:19:50;;;;;;;0.60;0.60;;;;;;;;;;5035785;28;20545;-64
2021/11/28 11:22:26;;;;;;;0.50;0.50;;;;;;;;;;5035292;28;20185;-64
2021/11/28 11:24:57;;;;;;;0.47;0.47;;;;;;;;;;5035465;28;20224;-64
2021/11/28 11:27:23;;;;;;;0.55;0.55;;;;;;;;;;5035819;28;20229;-64
2021/11/28 11:29:56;;;;;;;0.50;0.50;;;;;;;;;;5035429;28;20725;-65
2021/11/28 11:32:24;;;;;;;0.50;0.50;;;;;;;;;;5053419;28;20545;-65
2021/11/28 11:34:52;;;;;;;0.50;0.50;;;;;;;;;;5034928;28;20179;-64
2021/11/28 11:37:18;;;;;;;0.50;0.50;;;;;;;;;;5035424;28;20173;-65
2021/11/28 11:39:45;;;;;;;0.50;0.50;;;;;;;;;;5035701;28;20203;-65
2021/11/28 11:42:13;;;;;;;0.47;0.47;;;;;;;;;;5035459;28;20184;-65
2021/11/28 11:44:39;;;;;;;0.40;0.40;;;;;;;;;;5035043;28;20565;-65
2021/11/28 11:47:05;;;;;;;0.50;0.50;;;;;;;;;;5018704;28;20181;-64
2021/11/28 11:49:32;;;;;;;0.50;0.50;;;;;;;;;;5035031;28;20212;-64
2021/11/28 11:51:58;;;;;;;0.60;0.60;;;;;;;;;;5034833;28;20518;-64
2021/11/28 11:54:25;;;;;;;0.40;0.40;;;;;;;;;;5052891;28;20264;-65
2021/11/28 11:57:10;;;;;;;0.50;0.50;;;;;;;;;;5034588;28;20258;-64
2021/11/28 11:59:40;;;;;;;0.50;0.50;;;;;;;;;;5034815;28;20216;-64
2021/11/28 12:02:06;;;;;;;0.50;0.50;;;;;;;;;;5033631;28;20182;-65
2021/11/28 12:04:40;;;;;;;0.47;0.47;;;;;;;;;;5034521;28;20184;-64
2021/11/28 12:07:06;;;;;;;0.50;0.50;;;;;;;;;;5052377;28;20435;-64
2021/11/28 12:09:34;;;;;;;0.50;0.50;;;;;;;;;;5033674;28;20209;-64
2021/11/28 12:12:02;;;;;;;0.40;0.40;;;;;;;;;;5034647;28;20174;-64
2021/11/28 12:14:28;;;;;;;0.60;0.60;;;;;;;;;;5034596;28;20184;-65
2021/11/28 12:16:54;;;;;;;0.50;0.50;;;;;;;;;;5034692;28;20269;-65
2021/11/28 12:19:40;;;;;;;0.50;0.50;;;;;;;;;;5034241;28;20277;-65
2021/11/28 12:22:08;;;;;;;0.50;0.50;;;;;;;;;;5052348;28;20175;-65
2021/11/28 12:24:34;;;;;;;0.60;0.60;;;;;;;;;;5018479;28;20531;-65
2021/11/28 12:27:02;;;;;;;0.60;0.60;;;;;;;;;;5034626;28;20181;-65
2021/11/28 12:29:35;;;;;;;0.50;0.50;;;;;;;;;;5034032;28;20215;-65
2021/11/28 12:32:11;;;;;;;0.50;0.50;;;;;;;;;;5034379;28;20188;-65
2021/11/28 12:34:48;;;;;;;0.50;0.50;;;;;;;;;;5052374;28;20298;-64
2021/11/28 12:37:34;;;;;;;0.50;0.50;;;;;;;;;;5034521;28;20184;-65
2021/11/28 12:40:18;;;;;;;0.60;0.60;;;;;;;;;;5052235;28;20820;-65
2021/11/28 12:42:44;;;;;;;0.60;0.60;;;;;;;;;;5034188;28;20554;-65
2021/11/28 12:45:10;;;;;;;0.65;0.65;;;;;;;;;;5052576;28;20186;-65
2021/11/28 12:47:37;;;;;;;0.50;0.50;;;;;;;;;;5052013;28;20179;-65
2021/11/28 12:50:06;;;;;;;0.50;0.50;;;;;;;;;;5033869;28;20466;-64
2021/11/28 12:52:37;;;;;;;0.50;0.50;;;;;;;;;;5033691;28;20267;-64
2021/11/28 12:55:07;;;;;;;0.50;0.50;;;;;;;;;;5034113;28;20653;-65
2021/11/28 12:57:52;;;;;;;0.40;0.40;;;;;;;;;;5033968;28;20643;-65
2021/11/28 13:00:24;;;;;;;0.60;0.60;;;;;;;;;;5033526;28;20698;-65
2021/11/28 13:02:52;;;;;;;0.50;0.50;;;;;;;;;;5033565;28;20230;-64
2021/11/28 13:05:30;;;;;;;0.60;0.60;;;;;;;;;;5052043;28;20528;-65
2021/11/28 13:08:16;;;;;;;0.50;0.50;;;;;;;;;;5033932;28;20676;-65
2021/11/28 13:10:47;;;;;;;0.50;0.50;;;;;;;;;;5033533;28;20219;-65
2021/11/28 13:13:14;;;;;;;0.50;0.50;;;;;;;;;;5033864;28;20174;-65
2021/11/28 13:15:53;;;;;;;0.50;0.50;;;;;;;;;;5033989;28;20199;-65
2021/11/28 13:18:20;;;;;;;0.45;0.45;;;;;;;;;;5034078;28;20182;-65
2021/11/28 13:20:47;;;;;;;0.50;0.50;;;;;;;;;;5033392;28;20194;-65
2021/11/28 13:23:15;;;;;;;0.60;0.60;;;;;;;;;;5034293;28;20546;-65
2021/11/28 13:25:45;;;;;;;0.40;0.40;;;;;;;;;;5033937;28;20222;-65
2021/11/28 13:28:14;;;;;;;0.50;0.50;;;;;;;;;;5033949;28;20632;-65
2021/11/28 13:30:42;;;;;;;0.70;0.70;;;;;;;;;;5033859;28;20720;-65
2021/11/28 13:33:08;;;;;;;0.50;0.50;;;;;;;;;;5033865;28;20553;-65
2021/11/28 13:35:35;;;;;;;0.50;0.50;;;;;;;;;;5051459;28;20170;-64
2021/11/28 13:38:21;;;;;;;0.50;0.50;;;;;;;;;;5033803;28;20224;-64
2021/11/28 13:41:02;;;;;;;0.50;0.50;;;;;;;;;;5051245;28;20198;-65
2021/11/28 13:43:34;;;;;;;0.50;0.50;;;;;;;;;;5033674;28;20523;-65
2021/11/28 13:46:00;;;;;;;0.50;0.50;;;;;;;;;;5051421;28;20543;-65
2021/11/28 13:48:45;;;;;;;0.50;0.50;;;;;;;;;;5051463;28;20549;-65
2021/11/28 13:51:11;;;;;;;0.50;0.50;;;;;;;;;;5051037;28;20169;-65
2021/11/28 13:53:53;;;;;;;0.50;0.50;;;;;;;;;;5033364;28;20539;-65
2021/11/28 13:56:19;;;;;;;0.50;0.50;;;;;;;;;;5033190;28;20548;-64
2021/11/28 13:59:00;;;;;;;0.50;0.50;;;;;;;;;;5033251;28;20183;-65
2021/11/28 14:01:26;;;;;;;0.60;0.60;;;;;;;;;;5033098;28;20717;-65
2021/11/28 14:03:52;;;;;;;0.50;0.50;;;;;;;;;;5033291;28;20259;-65
2021/11/28 14:06:18;;;;;;;0.60;0.60;;;;;;;;;;5017006;28;20419;-65
2021/11/28 14:08:44;;;;;;;0.50;0.50;;;;;;;;;;5033118;28;20979;-65
2021/11/28 14:11:13;;;;;;;0.43;0.43;;;;;;;;;;5033198;28;20415;-65
2021/11/28 14:13:47;;;;;;;0.60;0.60;;;;;;;;;;5051293;28;20284;-64
2021/11/28 14:16:14;;;;;;;0.45;0.45;;;;;;;;;;5033529;28;20548;-65
2021/11/28 14:18:40;;;;;;;0.43;0.43;;;;;;;;;;5033344;28;20200;-65
2021/11/28 14:21:06;;;;;;;0.43;0.43;;;;;;;;;;5032999;28;20192;-65
2021/11/28 14:23:32;;;;;;;0.40;0.40;;;;;;;;;;5033104;28;20178;-65
2021/11/28 14:25:58;;;;;;;0.47;0.47;;;;;;;;;;5033182;28;20262;-65
2021/11/28 14:28:35;;;;;;;0.50;0.50;;;;;;;;;;5033026;28;20174;-65
2021/11/28 14:31:02;;;;;;;0.50;0.50;;;;;;;;;;5050745;28;20230;-65
2021/11/28 14:33:31;;;;;;;0.50;0.50;;;;;;;;;;5052831;28;20181;-65
2021/11/28 14:35:57;;;;;;;0.60;0.60;;;;;;;;;;5054613;28;20209;-65
2021/11/28 14:38:23;;;;;;;0.50;0.50;;;;;;;;;;5035674;28;20204;-65
2021/11/28 14:40:52;;;;;;;0.50;0.50;;;;;;;;;;5053887;28;20429;-65
2021/11/28 14:43:18;;;;;;;0.50;0.50;;;;;;;;;;5054102;28;20940;-65
2021/11/28 14:45:44;;;;;;;0.50;0.50;;;;;;;;;;5020138;28;20176;-65
2021/11/28 14:48:14;;;;;;;0.50;0.50;;;;;;;;;;5036396;28;20278;-65
2021/11/28 14:50:44;;;;;;;0.50;0.50;;;;;;;;;;5035980;28;20218;-65
2021/11/28 14:53:11;;;;;;;0.40;0.40;;;;;;;;;;5054374;28;20655;-65